DucheSS Of Scandinavia — OUZI2 — position and weather

sailwx.info

Track history (hours):
 
Tides and Currents Weather Stations Pressure Air Temp Water Temp Dewpoint Dewpoint Depression Visibility Wind Speed Wind Dir Waves Ship Positions

DucheSS Of Scandinavia

Operator: DFDS A/S

Last reported at 2019-Jul-19 18:30 UTC. Time now 2019-Jul-19 18:33 UTC.
Position N 59°01' E 010°21'.

Length 134 m; draft 5.4 m.

Type: Passenger vessel. MMSI: 219002929.

Date/timePositionNaut miles runAvg speedWind from/ knotsBaromVisibWave heightAir tempDewpointWater temp
2019-Jul-19 18:30N 59°01' E 010°21'816.0
2019-Jul-19 18:00N 59°01' E 010°37'816.7
2019-Jul-19 17:30N 59°01' E 010°53'816.7
2019-Jul-19 17:00N 58°56' E 011°06'2 4.2
2019-Jul-19 16:30N 58°56' E 011°10'0 0.0
2019-Jul-19 16:00N 58°56' E 011°10'510.6
2019-Jul-19 15:30N 58°59' E 011°01'816.7
2019-Jul-19 15:00N 59°02' E 010°46'917.0
2019-Jul-19 14:30N 59°00' E 010°30'815.9
2019-Jul-19 14:00N 59°03' E 010°15'5 9.3
2019-Jul-19 13:30N 59°08' E 010°14'0 0.0
2019-Jul-19 13:00N 59°08' E 010°14'0 0.0
2019-Jul-19 12:30N 59°08' E 010°14'5 9.6
2019-Jul-19 12:00N 59°03' E 010°15'714.7
2019-Jul-19 11:31N 59°01' E 010°29'815.5
2019-Jul-19 11:00N 59°02' E 010°44'815.6
2019-Jul-19 10:30N 58°60' E 010°58'714.0
2019-Jul-19 10:00N 58°56' E 011°10'0 0.5
2019-Jul-19 09:31N 58°56' E 011°10'0 0.1
2019-Jul-19 09:00N 58°56' E 011°10'612.7
2019-Jul-19 08:30N 58°59' E 010°60'714.7
2019-Jul-19 08:00N 59°02' E 010°46'714.8
2019-Jul-19 07:31N 59°00' E 010°32'815.1
2019-Jul-19 07:00N 59°01' E 010°17'612.4
2019-Jul-19 06:31N 59°07' E 010°14'0 0.7
2019-Jul-19 06:00N 59°08' E 010°14'0 0.6
2019-Jul-19 05:30N 59°07' E 010°14'1 2.2
2019-Jul-19 05:00N 59°06' E 010°14'0 0.0
2019-Jul-19 04:30N 59°06' E 010°14'0 0.0
2019-Jul-19 03:57N 59°06' E 010°14'0 0.0
2019-Jul-19 03:28N 59°06' E 010°14'0 0.0
2019-Jul-19 02:58N 59°06' E 010°14'0 0.0
2019-Jul-19 02:28N 59°06' E 010°14'0 0.0
2019-Jul-19 01:59N 59°06' E 010°14'0 0.0
2019-Jul-19 01:29N 59°06' E 010°14'0 0.0
2019-Jul-19 00:59N 59°06' E 010°14'0 0.0
2019-Jul-19 00:30N 59°06' E 010°14'0 0.0
2019-Jul-18 23:57N 59°06' E 010°14'0 0.0
2019-Jul-18 23:30N 59°06' E 010°14'0 0.0
2019-Jul-18 22:58N 59°06' E 010°14'0 0.0
2019-Jul-18 22:28N 59°06' E 010°14'0 0.0
2019-Jul-18 21:58N 59°06' E 010°14'0 0.0
2019-Jul-18 21:29N 59°06' E 010°14'0 0.0
2019-Jul-18 20:59N 59°06' E 010°14'0 0.0
2019-Jul-18 20:26N 59°06' E 010°14'0 0.0
2019-Jul-18 20:00N 59°06' E 010°14'1 2.9
2019-Jul-18 19:30N 59°08' E 010°14'1 1.1
2019-Jul-18 19:00N 59°07' E 010°14'612.8
2019-Jul-18 18:30N 59°01' E 010°19'816.4
2019-Jul-18 18:00N 59°01' E 010°35'816.6
2019-Jul-18 17:30N 59°01' E 010°51'816.0
2019-Jul-18 17:00N 58°57' E 011°04'3 6.1
2019-Jul-18 16:30N 58°56' E 011°10'0 0.0
2019-Jul-18 16:00N 58°56' E 011°10'4 8.0
2019-Jul-18 15:30N 58°57' E 011°03'816.5
2019-Jul-18 15:00N 59°01' E 010°49'816.8
2019-Jul-18 14:30N 59°01' E 010°33'816.8
2019-Jul-18 14:00N 59°02' E 010°16'612.0
2019-Jul-18 13:30N 59°07' E 010°14'0 0.3
2019-Jul-18 13:00N 59°08' E 010°14'0 0.0
2019-Jul-18 12:31N 59°08' E 010°14'510.1
2019-Jul-18 12:00N 59°03' E 010°15'715.0
2019-Jul-18 11:30N 59°01' E 010°29'815.6
2019-Jul-18 11:00N 59°02' E 010°44'815.1
2019-Jul-18 10:30N 58°60' E 010°59'713.7
2019-Jul-18 10:00N 58°56' E 011°10'0 0.6
2019-Jul-18 09:30N 58°56' E 011°10'0 0.0
2019-Jul-18 09:00N 58°56' E 011°10'611.6
2019-Jul-18 08:30N 58°59' E 011°01'815.6
2019-Jul-18 08:00N 59°02' E 010°47'815.3
2019-Jul-18 07:30N 59°01' E 010°32'815.3
2019-Jul-18 07:00N 59°01' E 010°17'612.1
2019-Jul-18 06:30N 59°07' E 010°14'0 0.4
2019-Jul-18 06:00N 59°08' E 010°14'1 1.1
2019-Jul-18 05:30N 59°07' E 010°14'1 1.7
2019-Jul-18 04:59N 59°06' E 010°14'0 0.0
2019-Jul-18 04:30N 59°06' E 010°14'0 0.0
2019-Jul-18 04:00N 59°06' E 010°14'0 0.0
2019-Jul-18 03:30N 59°06' E 010°14'0 0.0
2019-Jul-18 03:01N 59°06' E 010°14'0 0.0
2019-Jul-18 02:28N 59°06' E 010°14'0 0.0
2019-Jul-18 01:58N 59°06' E 010°14'0 0.0
2019-Jul-18 01:29N 59°06' E 010°14'0 0.0
2019-Jul-18 00:59N 59°06' E 010°14'0 0.0
2019-Jul-18 00:29N 59°06' E 010°14'0 0.0
2019-Jul-18 00:00N 59°06' E 010°14'0 0.0
2019-Jul-17 23:30N 59°06' E 010°14'0 0.0
2019-Jul-17 23:00N 59°06' E 010°14'0 0.0
2019-Jul-17 22:31N 59°06' E 010°14'0 0.0
2019-Jul-17 21:58N 59°06' E 010°14'0 0.0
2019-Jul-17 21:28N 59°06' E 010°14'0 0.0
2019-Jul-17 20:59N 59°06' E 010°14'0 0.0
2019-Jul-17 20:29N 59°06' E 010°14'0 0.0
2019-Jul-17 20:00N 59°06' E 010°14'1 2.9
2019-Jul-17 19:30N 59°08' E 010°14'1 2.8
2019-Jul-17 19:01N 59°06' E 010°14'713.3
2019-Jul-17 18:30N 59°01' E 010°22'714.4
2019-Jul-17 18:00N 59°01' E 010°36'714.0
2019-Jul-17 17:30N 59°01' E 010°50'714.4
2019-Jul-17 17:00N 58°58' E 011°03'5 9.2
2019-Jul-17 16:31N 58°56' E 011°10'0 0.0
2019-Jul-17 16:00N 58°56' E 011°10'4 7.7
2019-Jul-17 15:30N 58°57' E 011°03'815.3
2019-Jul-17 15:00N 59°01' E 010°50'815.9
2019-Jul-17 14:30N 59°01' E 010°35'816.2
2019-Jul-17 14:00N 59°01' E 010°19'713.5
2019-Jul-17 13:30N 59°07' E 010°14'1 1.7
2019-Jul-17 13:00N 59°08' E 010°14'0 0.0
2019-Jul-17 12:30N 59°08' E 010°14'3 6.4
2019-Jul-17 12:01N 59°04' E 010°15'714.0
2019-Jul-17 11:31N 59°01' E 010°26'816.2
2019-Jul-17 11:01N 59°01' E 010°42'816.0
2019-Jul-17 10:30N 58°60' E 010°58'714.8
2019-Jul-17 10:00N 58°56' E 011°10'0 0.4
2019-Jul-17 09:30N 58°56' E 011°10'0 0.5
2019-Jul-17 09:00N 58°56' E 011°10'713.0
2019-Jul-17 08:30N 58°60' E 010°59'714.7
2019-Jul-17 08:00N 59°02' E 010°46'815.4
2019-Jul-17 07:30N 59°00' E 010°31'816.1
2019-Jul-17 07:00N 59°02' E 010°15'510.6
2019-Jul-17 06:30N 59°08' E 010°14'0 0.0
2019-Jul-17 06:00N 59°08' E 010°14'0 0.7
2019-Jul-17 05:30N 59°07' E 010°14'1 2.0
2019-Jul-17 04:58N 59°06' E 010°14'0 0.0
2019-Jul-17 04:28N 59°06' E 010°14'0 0.0
2019-Jul-17 03:59N 59°06' E 010°14'0 0.0
2019-Jul-17 03:29N 59°06' E 010°14'0 0.0
2019-Jul-17 02:59N 59°06' E 010°14'0 0.0
2019-Jul-17 02:30N 59°06' E 010°14'0 0.0
2019-Jul-17 02:00N 59°06' E 010°14'0 0.0
2019-Jul-17 01:30N 59°06' E 010°14'0 0.0
2019-Jul-17 01:00N 59°06' E 010°14'0 0.0
2019-Jul-17 00:28N 59°06' E 010°14'0 0.0
2019-Jul-16 23:58N 59°06' E 010°14'0 0.0
2019-Jul-16 23:29N 59°06' E 010°14'0 0.0
2019-Jul-16 22:59N 59°06' E 010°14'0 0.0
2019-Jul-16 22:29N 59°06' E 010°14'0 0.0
2019-Jul-16 22:00N 59°06' E 010°14'0 0.0
2019-Jul-16 21:30N 59°06' E 010°14'0 0.0
2019-Jul-16 21:00N 59°06' E 010°14'0 0.0
2019-Jul-16 20:31N 59°06' E 010°14'0 0.0
2019-Jul-16 20:00N 59°06' E 010°14'1 2.8
2019-Jul-16 19:30N 59°08' E 010°14'0 1.0
2019-Jul-16 19:00N 59°07' E 010°14'612.6
2019-Jul-16 18:31N 59°01' E 010°19'816.0
2019-Jul-16 18:00N 59°01' E 010°34'815.1
2019-Jul-16 17:30N 59°01' E 010°49'816.5
2019-Jul-16 17:01N 58°58' E 011°03'4 7.8
2019-Jul-16 16:30N 58°56' E 011°10'0 0.0
2019-Jul-16 16:00N 58°56' E 011°10'5 9.6
2019-Jul-16 15:31N 58°58' E 011°02'816.9
2019-Jul-16 15:01N 59°02' E 010°47'917.0
2019-Jul-16 14:30N 59°00' E 010°31'816.1
2019-Jul-16 14:01N 59°02' E 010°15'611.0
2019-Jul-16 13:30N 59°08' E 010°14'0 0.0
2019-Jul-16 13:00N 59°08' E 010°14'0 0.0
2019-Jul-16 12:30N 59°08' E 010°14'510.8
2019-Jul-16 12:00N 59°02' E 010°15'816.0
2019-Jul-16 11:31N 59°00' E 010°30'816.0
2019-Jul-16 11:00N 59°02' E 010°46'815.1
2019-Jul-16 10:30N 58°60' E 010°60'612.3
2019-Jul-16 10:00N 58°56' E 011°10'0 0.2
2019-Jul-16 09:30N 58°56' E 011°10'0 0.6
2019-Jul-16 09:00N 58°56' E 011°10'611.9
2019-Jul-16 08:30N 58°59' E 010°60'713.9
2019-Jul-16 08:00N 59°02' E 010°47'714.6
2019-Jul-16 07:31N 59°01' E 010°33'816.3
2019-Jul-16 07:00N 59°01' E 010°17'712.9
2019-Jul-16 06:30N 59°07' E 010°14'0 0.4
2019-Jul-16 06:00N 59°08' E 010°14'1 1.0
2019-Jul-16 05:30N 59°07' E 010°14'1 1.7
2019-Jul-16 04:58N 59°06' E 010°14'0 0.0
2019-Jul-16 04:28N 59°06' E 010°14'0 0.0
2019-Jul-16 03:59N 59°06' E 010°14'0 0.0
2019-Jul-16 03:29N 59°06' E 010°14'0 0.0
2019-Jul-16 02:59N 59°06' E 010°14'0 0.0
2019-Jul-16 02:30N 59°06' E 010°14'0 0.0
2019-Jul-16 02:00N 59°06' E 010°14'0 0.0
2019-Jul-16 01:30N 59°06' E 010°14'0 0.0
2019-Jul-16 00:58N 59°06' E 010°14'0 0.0
2019-Jul-16 00:28N 59°06' E 010°14'0 0.0
2019-Jul-15 23:58N 59°06' E 010°14'0 0.0
2019-Jul-15 23:29N 59°06' E 010°14'0 0.0
2019-Jul-15 22:59N 59°06' E 010°14'0 0.0
2019-Jul-15 22:29N 59°06' E 010°14'0 0.0
2019-Jul-15 22:00N 59°06' E 010°14'0 0.0
2019-Jul-15 21:30N 59°06' E 010°14'0 0.0
2019-Jul-15 21:00N 59°06' E 010°14'0 0.0
2019-Jul-15 20:28N 59°06' E 010°14'0 0.0
2019-Jul-15 19:58N 59°06' E 010°14'1 2.6
2019-Jul-15 19:30N 59°07' E 010°14'0 0.4
2019-Jul-15 19:00N 59°08' E 010°14'611.1
2019-Jul-15 18:30N 59°02' E 010°16'817.0
2019-Jul-15 18:01N 59°01' E 010°32'917.1
2019-Jul-15 17:31N 59°02' E 010°48'917.1
2019-Jul-15 17:00N 58°58' E 011°03'4 8.0
2019-Jul-15 16:30N 58°56' E 011°10'0 0.0
2019-Jul-15 16:00N 58°56' E 011°10'510.0
2019-Jul-15 15:30N 58°58' E 011°02'816.3
2019-Jul-15 15:01N 59°02' E 010°47'816.9
2019-Jul-15 14:31N 59°00' E 010°31'815.7
2019-Jul-15 14:00N 59°02' E 010°16'611.7
2019-Jul-15 13:30N 59°08' E 010°14'0 0.1
2019-Jul-15 13:00N 59°08' E 010°14'0 0.0
2019-Jul-15 12:30N 59°08' E 010°14'3 7.0
2019-Jul-15 12:01N 59°04' E 010°15'713.6
2019-Jul-15 11:31N 59°01' E 010°26'816.1
2019-Jul-15 11:01N 59°02' E 010°42'815.9
2019-Jul-15 10:30N 59°00' E 010°57'815.3
2019-Jul-15 10:00N 58°56' E 011°09'1 1.1
2019-Jul-15 09:31N 58°56' E 011°10'0 0.0
2019-Jul-15 09:00N 58°56' E 011°10'5 9.8
2019-Jul-15 08:30N 58°58' E 011°02'816.5
2019-Jul-15 08:01N 59°02' E 010°47'816.5
2019-Jul-15 07:30N 59°00' E 010°32'816.6
2019-Jul-15 07:00N 59°02' E 010°16'611.7
2019-Jul-15 06:31N 59°08' E 010°14'0 0.1
2019-Jul-15 06:00N 59°08' E 010°14'0 0.3
2019-Jul-15 05:30N 59°07' E 010°14'1 2.5
2019-Jul-15 04:59N 59°06' E 010°14'0 0.0
2019-Jul-15 04:29N 59°06' E 010°14'0 0.0
2019-Jul-15 03:59N 59°06' E 010°14'0 0.0
2019-Jul-15 03:30N 59°06' E 010°14'0 0.0
2019-Jul-15 03:00N 59°06' E 010°14'0 0.0
2019-Jul-15 02:30N 59°06' E 010°14'0 0.0
2019-Jul-15 01:58N 59°06' E 010°14'0 0.0
2019-Jul-15 01:28N 59°06' E 010°14'0 0.0
2019-Jul-15 00:58N 59°06' E 010°14'0 0.0
2019-Jul-15 00:29N 59°06' E 010°14'0 0.0
2019-Jul-14 23:59N 59°06' E 010°14'0 0.0
2019-Jul-14 23:26N 59°06' E 010°14'0 0.0
2019-Jul-14 23:00N 59°06' E 010°14'0 0.0
2019-Jul-14 22:30N 59°06' E 010°14'0 0.0
2019-Jul-14 22:00N 59°06' E 010°14'0 0.0
2019-Jul-14 21:28N 59°06' E 010°14'0 0.0
2019-Jul-14 20:58N 59°06' E 010°14'0 0.0
2019-Jul-14 20:28N 59°06' E 010°14'0 0.0
2019-Jul-14 20:00N 59°06' E 010°14'1 2.9
2019-Jul-14 19:30N 59°08' E 010°14'0 0.9
2019-Jul-14 19:00N 59°07' E 010°14'612.9
2019-Jul-14 18:31N 59°01' E 010°19'917.1
2019-Jul-14 18:00N 59°01' E 010°36'816.6
2019-Jul-14 17:31N 59°01' E 010°52'917.0
2019-Jul-14 17:00N 58°56' E 011°06'2 4.9
2019-Jul-14 16:31N 58°56' E 011°10'0 0.0
2019-Jul-14 16:01N 58°56' E 011°10'5 9.6
2019-Jul-14 15:30N 58°58' E 011°02'817.0
2019-Jul-14 15:00N 59°02' E 010°47'917.5
2019-Jul-14 14:30N 59°00' E 010°30'815.9
2019-Jul-14 14:00N 59°03' E 010°15'5 9.5
2019-Jul-14 13:31N 59°08' E 010°14'0 0.0
2019-Jul-14 13:00N 59°08' E 010°14'0 0.0
2019-Jul-14 12:30N 59°08' E 010°14'5 9.3
2019-Jul-14 12:00N 59°03' E 010°15'815.1
2019-Jul-14 11:31N 59°01' E 010°29'816.1
2019-Jul-14 11:01N 59°02' E 010°45'815.8
2019-Jul-14 10:30N 58°60' E 010°59'712.9
2019-Jul-14 10:00N 58°56' E 011°10'0 0.1
2019-Jul-14 09:30N 58°56' E 011°10'0 0.0
2019-Jul-14 09:01N 58°56' E 011°10'4 8.7
2019-Jul-14 08:30N 58°58' E 011°03'815.9
2019-Jul-14 08:00N 59°01' E 010°49'816.2
2019-Jul-14 07:30N 59°01' E 010°33'816.2
2019-Jul-14 07:01N 59°01' E 010°17'612.5
2019-Jul-14 06:30N 59°07' E 010°14'0 0.5
2019-Jul-14 06:00N 59°08' E 010°14'0 0.9
2019-Jul-14 05:30N 59°07' E 010°14'1 1.9
2019-Jul-14 05:00N 59°06' E 010°14'0 0.0
2019-Jul-14 04:31N 59°06' E 010°14'0 0.0
2019-Jul-14 04:01N 59°06' E 010°14'0 0.0
2019-Jul-14 03:30N 59°06' E 010°14'0 0.0
2019-Jul-14 03:01N 59°06' E 010°14'0 0.0
2019-Jul-14 02:30N 59°06' E 010°14'0 0.0
2019-Jul-14 02:00N 59°06' E 010°14'0 0.0
2019-Jul-14 01:30N 59°06' E 010°14'0 0.0
2019-Jul-14 01:00N 59°06' E 010°14'0 0.0
2019-Jul-14 00:30N 59°06' E 010°14'0 0.0
2019-Jul-14 00:00N 59°06' E 010°14'0 0.0
2019-Jul-13 23:31N 59°06' E 010°14'0 0.0
2019-Jul-13 23:01N 59°06' E 010°14'0 0.0
2019-Jul-13 22:31N 59°06' E 010°14'0 0.0
2019-Jul-13 22:00N 59°06' E 010°14'0 0.0
2019-Jul-13 21:31N 59°06' E 010°14'0 0.0
2019-Jul-13 21:00N 59°06' E 010°14'0 0.0
2019-Jul-13 20:30N 59°06' E 010°14'0 0.0
2019-Jul-13 20:00N 59°06' E 010°14'1 2.9
2019-Jul-13 19:30N 59°08' E 010°14'0 0.0
2019-Jul-13 19:01N 59°08' E 010°14'611.9
2019-Jul-13 18:30N 59°02' E 010°16'816.5
2019-Jul-13 18:01N 59°01' E 010°32'917.0
2019-Jul-13 17:30N 59°02' E 010°48'816.9
2019-Jul-13 17:00N 58°58' E 011°03'4 8.0
2019-Jul-13 16:30N 58°56' E 011°10'0 0.0
2019-Jul-13 16:00N 58°56' E 011°10'4 7.8
2019-Jul-13 15:30N 58°57' E 011°03'815.6
2019-Jul-13 15:01N 59°01' E 010°50'815.4
2019-Jul-13 14:30N 59°01' E 010°35'815.9
2019-Jul-13 14:01N 59°01' E 010°20'713.0
2019-Jul-13 13:30N 59°07' E 010°14'1 1.6
2019-Jul-13 13:00N 59°08' E 010°14'0 0.0
2019-Jul-13 12:30N 59°08' E 010°14'4 7.1
2019-Jul-13 12:00N 59°04' E 010°15'713.8
2019-Jul-13 11:31N 59°01' E 010°26'816.2
2019-Jul-13 11:01N 59°01' E 010°42'815.7
2019-Jul-13 10:30N 59°00' E 010°57'814.7
2019-Jul-13 09:59N 58°56' E 011°09'0 0.7
2019-Jul-13 09:30N 58°56' E 011°10'0 0.1
2019-Jul-13 09:00N 58°56' E 011°10'612.6
2019-Jul-13 08:30N 58°59' E 010°60'816.3
2019-Jul-13 08:00N 59°02' E 010°45'816.6
2019-Jul-13 07:30N 59°00' E 010°29'815.2
2019-Jul-13 07:01N 59°03' E 010°15'4 8.5
2019-Jul-13 06:30N 59°08' E 010°14'0 0.0
2019-Jul-13 06:00N 59°08' E 010°14'1 1.1
2019-Jul-13 05:30N 59°07' E 010°14'1 1.8
2019-Jul-13 05:00N 59°06' E 010°14'0 0.0
2019-Jul-13 04:29N 59°06' E 010°14'0 0.0
2019-Jul-13 03:59N 59°06' E 010°14'0 0.0
2019-Jul-13 03:30N 59°06' E 010°14'0 0.0
2019-Jul-13 03:00N 59°06' E 010°14'0 0.0
2019-Jul-13 02:30N 59°06' E 010°14'0 0.0
2019-Jul-13 01:58N 59°06' E 010°14'0 0.0
2019-Jul-13 01:28N 59°06' E 010°14'0 0.0
2019-Jul-13 00:59N 59°06' E 010°14'0 0.0
2019-Jul-13 00:29N 59°06' E 010°14'0 0.0
2019-Jul-12 23:59N 59°06' E 010°14'0 0.0
2019-Jul-12 23:30N 59°06' E 010°14'0 0.0
2019-Jul-12 23:00N 59°06' E 010°14'0 0.0
2019-Jul-12 22:30N 59°06' E 010°14'0 0.0
2019-Jul-12 22:01N 59°06' E 010°14'0 0.0
2019-Jul-12 21:28N 59°06' E 010°14'0 0.0
2019-Jul-12 20:58N 59°06' E 010°14'0 0.0
2019-Jul-12 20:29N 59°06' E 010°14'0 0.0
2019-Jul-12 20:00N 59°06' E 010°14'1 2.9
2019-Jul-12 19:30N 59°08' E 010°14'0 0.7
2019-Jul-12 19:00N 59°07' E 010°14'612.5
2019-Jul-12 18:30N 59°01' E 010°18'816.2
2019-Jul-12 18:01N 59°01' E 010°34'816.4
2019-Jul-12 17:30N 59°01' E 010°50'816.6
2019-Jul-12 17:00N 58°57' E 011°04'3 7.0
2019-Jul-12 16:31N 58°56' E 011°10'0 0.0
2019-Jul-12 16:00N 58°56' E 011°10'4 7.8
2019-Jul-12 15:30N 58°57' E 011°03'816.4
2019-Jul-12 15:00N 59°01' E 010°49'816.9
2019-Jul-12 14:30N 59°01' E 010°33'917.2
2019-Jul-12 14:01N 59°02' E 010°16'611.9
2019-Jul-12 13:30N 59°07' E 010°14'0 0.2
2019-Jul-12 13:01N 59°08' E 010°14'0 0.0
2019-Jul-12 12:30N 59°08' E 010°14'5 9.6
2019-Jul-12 12:01N 59°03' E 010°15'714.3
2019-Jul-12 11:31N 59°01' E 010°29'815.6
2019-Jul-12 11:01N 59°01' E 010°44'815.4
2019-Jul-12 10:30N 58°60' E 010°58'714.1
2019-Jul-12 10:00N 58°56' E 011°10'0 0.1
2019-Jul-12 09:30N 58°56' E 011°10'0 0.1
2019-Jul-12 09:01N 58°56' E 011°10'612.5
2019-Jul-12 08:30N 58°59' E 010°60'816.3
2019-Jul-12 08:00N 59°02' E 010°45'816.6
2019-Jul-12 07:30N 59°00' E 010°29'815.2
2019-Jul-12 07:00N 59°03' E 010°15'4 8.8
2019-Jul-12 06:31N 59°08' E 010°14'0 0.0
2019-Jul-12 06:00N 59°08' E 010°14'1 1.8
2019-Jul-12 05:30N 59°07' E 010°14'1 1.0
2019-Jul-12 05:01N 59°06' E 010°14'0 0.0
2019-Jul-12 04:28N 59°06' E 010°14'0 0.0
2019-Jul-12 03:58N 59°06' E 010°14'0 0.0
2019-Jul-12 03:28N 59°06' E 010°14'0 0.0
2019-Jul-12 02:59N 59°06' E 010°14'0 0.0
2019-Jul-12 02:29N 59°06' E 010°14'0 0.0
2019-Jul-12 01:30N 59°06' E 010°14'0 0.0
2019-Jul-12 01:00N 59°06' E 010°14'0 0.0
2019-Jul-12 00:30N 59°06' E 010°14'0 0.0
2019-Jul-11 23:58N 59°06' E 010°14'0 0.0
2019-Jul-11 23:28N 59°06' E 010°14'0 0.0
2019-Jul-11 22:58N 59°06' E 010°14'0 0.0
2019-Jul-11 22:29N 59°06' E 010°14'0 0.0
2019-Jul-11 21:59N 59°06' E 010°14'0 0.0
2019-Jul-11 21:29N 59°06' E 010°14'0 0.0
2019-Jul-11 21:00N 59°06' E 010°14'0 0.0
2019-Jul-11 20:30N 59°06' E 010°14'0 0.0
2019-Jul-11 20:00N 59°06' E 010°14'1 2.9
2019-Jul-11 19:31N 59°08' E 010°14'1 1.3
2019-Jul-11 19:00N 59°07' E 010°14'612.8
2019-Jul-11 18:31N 59°01' E 010°20'816.3
2019-Jul-11 18:00N 59°01' E 010°36'816.5
2019-Jul-11 17:30N 59°01' E 010°52'816.5
2019-Jul-11 17:00N 58°57' E 011°05'3 5.3
2019-Jul-11 16:30N 58°56' E 011°10'0 0.0
2019-Jul-11 16:00N 58°56' E 011°10'4 8.6
2019-Jul-11 15:30N 58°58' E 011°03'816.3
2019-Jul-11 15:00N 59°01' E 010°49'816.9
2019-Jul-11 14:30N 59°01' E 010°32'917.0
2019-Jul-11 14:00N 59°02' E 010°16'611.6
2019-Jul-11 13:30N 59°08' E 010°14'0 0.1
2019-Jul-11 13:01N 59°08' E 010°14'0 0.0
2019-Jul-11 12:30N 59°08' E 010°14'611.3
2019-Jul-11 12:01N 59°02' E 010°16'815.7
2019-Jul-11 11:31N 59°00' E 010°31'815.8
2019-Jul-11 11:00N 59°02' E 010°46'815.6
2019-Jul-11 10:31N 58°59' E 011°00'612.0
2019-Jul-11 10:00N 58°56' E 011°10'0 0.0
2019-Jul-11 09:30N 58°56' E 011°10'2 4.0
2019-Jul-11 09:00N 58°56' E 011°06'817.1
2019-Jul-11 08:30N 59°01' E 010°53'714.1
2019-Jul-11 08:00N 59°01' E 010°39'816.1
2019-Jul-11 07:30N 59°01' E 010°23'713.6
2019-Jul-11 07:00N 59°06' E 010°14'2 3.5
2019-Jul-11 06:30N 59°08' E 010°14'0 0.3
2019-Jul-11 06:00N 59°07' E 010°14'1 2.6
2019-Jul-11 05:30N 59°06' E 010°14'0 0.0
2019-Jul-11 05:00N 59°06' E 010°14'0 0.0
2019-Jul-11 04:30N 59°06' E 010°14'0 0.0
2019-Jul-11 04:00N 59°06' E 010°14'0 0.0
2019-Jul-11 03:30N 59°06' E 010°14'0 0.0
2019-Jul-11 03:00N 59°06' E 010°14'0 0.0
2019-Jul-11 02:30N 59°06' E 010°14'0 0.0
2019-Jul-11 02:00N 59°06' E 010°14'0 0.0
2019-Jul-11 01:30N 59°06' E 010°14'0 0.0
2019-Jul-11 01:00N 59°06' E 010°14'0 0.0
2019-Jul-11 00:30N 59°06' E 010°14'0 0.0
2019-Jul-11 00:00N 59°06' E 010°14'0 0.0
2019-Jul-10 23:30N 59°06' E 010°14'0 0.0
2019-Jul-10 23:00N 59°06' E 010°14'0 0.0
2019-Jul-10 22:30N 59°06' E 010°14'0 0.0
2019-Jul-10 22:00N 59°06' E 010°14'0 0.0
2019-Jul-10 21:30N 59°06' E 010°14'0 0.0
2019-Jul-10 21:00N 59°06' E 010°14'0 0.0
2019-Jul-10 20:30N 59°06' E 010°14'0 0.0
2019-Jul-10 20:00N 59°06' E 010°14'1 2.9
2019-Jul-10 19:30N 59°08' E 010°14'0 0.6
2019-Jul-10 19:00N 59°07' E 010°14'612.5
2019-Jul-10 18:30N 59°01' E 010°18'816.3
2019-Jul-10 18:00N 59°01' E 010°34'815.8
2019-Jul-10 17:30N 59°01' E 010°49'815.4
2019-Jul-10 17:00N 58°58' E 011°03'4 8.8
2019-Jul-10 16:30N 58°56' E 011°10'0 0.0
2019-Jul-10 16:00N 58°56' E 011°10'4 8.0
2019-Jul-10 15:30N 58°57' E 011°03'815.6
2019-Jul-10 15:01N 59°01' E 010°50'816.2
2019-Jul-10 14:31N 59°01' E 010°34'816.5
2019-Jul-10 14:01N 59°01' E 010°18'612.7
2019-Jul-10 13:30N 59°07' E 010°14'0 0.6
2019-Jul-10 13:00N 59°08' E 010°14'0 0.0
2019-Jul-10 12:30N 59°08' E 010°14'510.0
2019-Jul-10 12:00N 59°03' E 010°15'714.3
2019-Jul-10 11:31N 59°01' E 010°29'815.3
2019-Jul-10 11:00N 59°01' E 010°43'714.7
2019-Jul-10 10:30N 59°00' E 010°58'714.5
2019-Jul-10 10:00N 58°56' E 011°09'0 0.7
2019-Jul-10 09:30N 58°56' E 011°10'0 0.6
2019-Jul-10 09:00N 58°56' E 011°10'714.4
2019-Jul-10 08:30N 58°60' E 010°58'815.9
2019-Jul-10 08:00N 59°01' E 010°43'816.3
2019-Jul-10 07:30N 59°01' E 010°27'714.9
2019-Jul-10 07:00N 59°04' E 010°15'3 6.4
2019-Jul-10 06:30N 59°08' E 010°14'0 0.0
2019-Jul-10 06:00N 59°08' E 010°14'0 0.7
2019-Jul-10 05:31N 59°07' E 010°14'1 2.1
2019-Jul-10 05:00N 59°06' E 010°14'0 0.0
2019-Jul-10 04:30N 59°06' E 010°14'0 0.0
2019-Jul-10 04:00N 59°06' E 010°14'0 0.0
2019-Jul-10 03:30N 59°06' E 010°14'0 0.0
2019-Jul-10 03:01N 59°06' E 010°14'0 0.0
2019-Jul-10 02:31N 59°06' E 010°14'0 0.0
2019-Jul-10 02:01N 59°06' E 010°14'0 0.0
2019-Jul-10 01:30N 59°06' E 010°14'0 0.0
2019-Jul-10 01:01N 59°06' E 010°14'0 0.0
2019-Jul-10 00:30N 59°06' E 010°14'0 0.0
2019-Jul-10 00:01N 59°06' E 010°14'0 0.0
2019-Jul-09 23:30N 59°06' E 010°14'0 0.0
2019-Jul-09 23:00N 59°06' E 010°14'0 0.0
2019-Jul-09 22:30N 59°06' E 010°14'0 0.0
2019-Jul-09 22:01N 59°06' E 010°14'0 0.0
2019-Jul-09 21:30N 59°06' E 010°14'0 0.0
2019-Jul-09 21:00N 59°06' E 010°14'0 0.0
2019-Jul-09 20:30N 59°06' E 010°14'0 0.0
2019-Jul-09 20:01N 59°06' E 010°14'1 2.8
2019-Jul-09 19:30N 59°08' E 010°14'0 0.0
2019-Jul-09 19:01N 59°08' E 010°14'611.5
2019-Jul-09 18:30N 59°02' E 010°16'  
Track history (hours):
 
Tides and Currents Weather Stations Pressure Air Temp Water Temp Dewpoint Dewpoint Depression Visibility Wind Speed Wind Dir Waves Ship Positions

DucheSS Of Scandinavia

Operator: DFDS A/S

Last reported at 2019-Jul-19 18:30 UTC. Time now 2019-Jul-19 18:33 UTC.
Position N 59°01' E 010°21'.

Length 134 m; draft 5.4 m.

Type: Passenger vessel. MMSI: 219002929.

Date/timePositionNaut miles runAvg speedWind from/ knotsBaromVisibWave heightAir tempDewpointWater temp
2019-Jul-19 18:30N 59°01' E 010°21'816.0
2019-Jul-19 18:00N 59°01' E 010°37'816.7
2019-Jul-19 17:30N 59°01' E 010°53'816.7
2019-Jul-19 17:00N 58°56' E 011°06'2 4.2
2019-Jul-19 16:30N 58°56' E 011°10'0 0.0
2019-Jul-19 16:00N 58°56' E 011°10'510.6
2019-Jul-19 15:30N 58°59' E 011°01'816.7
2019-Jul-19 15:00N 59°02' E 010°46'917.0
2019-Jul-19 14:30N 59°00' E 010°30'815.9
2019-Jul-19 14:00N 59°03' E 010°15'5 9.3
2019-Jul-19 13:30N 59°08' E 010°14'0 0.0
2019-Jul-19 13:00N 59°08' E 010°14'0 0.0
2019-Jul-19 12:30N 59°08' E 010°14'5 9.6
2019-Jul-19 12:00N 59°03' E 010°15'714.7
2019-Jul-19 11:31N 59°01' E 010°29'815.5
2019-Jul-19 11:00N 59°02' E 010°44'815.6
2019-Jul-19 10:30N 58°60' E 010°58'714.0
2019-Jul-19 10:00N 58°56' E 011°10'0 0.5
2019-Jul-19 09:31N 58°56' E 011°10'0 0.1
2019-Jul-19 09:00N 58°56' E 011°10'612.7
2019-Jul-19 08:30N 58°59' E 010°60'714.7
2019-Jul-19 08:00N 59°02' E 010°46'714.8
2019-Jul-19 07:31N 59°00' E 010°32'815.1
2019-Jul-19 07:00N 59°01' E 010°17'612.4
2019-Jul-19 06:31N 59°07' E 010°14'0 0.7
2019-Jul-19 06:00N 59°08' E 010°14'0 0.6
2019-Jul-19 05:30N 59°07' E 010°14'1 2.2
2019-Jul-19 05:00N 59°06' E 010°14'0 0.0
2019-Jul-19 04:30N 59°06' E 010°14'0 0.0
2019-Jul-19 03:57N 59°06' E 010°14'0 0.0
2019-Jul-19 03:28N 59°06' E 010°14'0 0.0
2019-Jul-19 02:58N 59°06' E 010°14'0 0.0
2019-Jul-19 02:28N 59°06' E 010°14'0 0.0
2019-Jul-19 01:59N 59°06' E 010°14'0 0.0
2019-Jul-19 01:29N 59°06' E 010°14'0 0.0
2019-Jul-19 00:59N 59°06' E 010°14'0 0.0
2019-Jul-19 00:30N 59°06' E 010°14'0 0.0
2019-Jul-18 23:57N 59°06' E 010°14'0 0.0
2019-Jul-18 23:30N 59°06' E 010°14'0 0.0
2019-Jul-18 22:58N 59°06' E 010°14'0 0.0
2019-Jul-18 22:28N 59°06' E 010°14'0 0.0
2019-Jul-18 21:58N 59°06' E 010°14'0 0.0
2019-Jul-18 21:29N 59°06' E 010°14'0 0.0
2019-Jul-18 20:59N 59°06' E 010°14'0 0.0
2019-Jul-18 20:26N 59°06' E 010°14'0 0.0
2019-Jul-18 20:00N 59°06' E 010°14'1 2.9
2019-Jul-18 19:30N 59°08' E 010°14'1 1.1
2019-Jul-18 19:00N 59°07' E 010°14'612.8
2019-Jul-18 18:30N 59°01' E 010°19'816.4
2019-Jul-18 18:00N 59°01' E 010°35'816.6
2019-Jul-18 17:30N 59°01' E 010°51'816.0
2019-Jul-18 17:00N 58°57' E 011°04'3 6.1
2019-Jul-18 16:30N 58°56' E 011°10'0 0.0
2019-Jul-18 16:00N 58°56' E 011°10'4 8.0
2019-Jul-18 15:30N 58°57' E 011°03'816.5
2019-Jul-18 15:00N 59°01' E 010°49'816.8
2019-Jul-18 14:30N 59°01' E 010°33'816.8
2019-Jul-18 14:00N 59°02' E 010°16'612.0
2019-Jul-18 13:30N 59°07' E 010°14'0 0.3
2019-Jul-18 13:00N 59°08' E 010°14'0 0.0
2019-Jul-18 12:31N 59°08' E 010°14'510.1
2019-Jul-18 12:00N 59°03' E 010°15'715.0
2019-Jul-18 11:30N 59°01' E 010°29'815.6
2019-Jul-18 11:00N 59°02' E 010°44'815.1
2019-Jul-18 10:30N 58°60' E 010°59'713.7
2019-Jul-18 10:00N 58°56' E 011°10'0 0.6
2019-Jul-18 09:30N 58°56' E 011°10'0 0.0
2019-Jul-18 09:00N 58°56' E 011°10'611.6
2019-Jul-18 08:30N 58°59' E 011°01'815.6
2019-Jul-18 08:00N 59°02' E 010°47'815.3
2019-Jul-18 07:30N 59°01' E 010°32'815.3
2019-Jul-18 07:00N 59°01' E 010°17'612.1
2019-Jul-18 06:30N 59°07' E 010°14'0 0.4
2019-Jul-18 06:00N 59°08' E 010°14'1 1.1
2019-Jul-18 05:30N 59°07' E 010°14'1 1.7
2019-Jul-18 04:59N 59°06' E 010°14'0 0.0
2019-Jul-18 04:30N 59°06' E 010°14'0 0.0
2019-Jul-18 04:00N 59°06' E 010°14'0 0.0
2019-Jul-18 03:30N 59°06' E 010°14'0 0.0
2019-Jul-18 03:01N 59°06' E 010°14'0 0.0
2019-Jul-18 02:28N 59°06' E 010°14'0 0.0
2019-Jul-18 01:58N 59°06' E 010°14'0 0.0
2019-Jul-18 01:29N 59°06' E 010°14'0 0.0
2019-Jul-18 00:59N 59°06' E 010°14'0 0.0
2019-Jul-18 00:29N 59°06' E 010°14'0 0.0
2019-Jul-18 00:00N 59°06' E 010°14'0 0.0
2019-Jul-17 23:30N 59°06' E 010°14'0 0.0
2019-Jul-17 23:00N 59°06' E 010°14'0 0.0
2019-Jul-17 22:31N 59°06' E 010°14'0 0.0
2019-Jul-17 21:58N 59°06' E 010°14'0 0.0
2019-Jul-17 21:28N 59°06' E 010°14'0 0.0
2019-Jul-17 20:59N 59°06' E 010°14'0 0.0
2019-Jul-17 20:29N 59°06' E 010°14'0 0.0
2019-Jul-17 20:00N 59°06' E 010°14'1 2.9
2019-Jul-17 19:30N 59°08' E 010°14'1 2.8
2019-Jul-17 19:01N 59°06' E 010°14'713.3
2019-Jul-17 18:30N 59°01' E 010°22'714.4
2019-Jul-17 18:00N 59°01' E 010°36'714.0
2019-Jul-17 17:30N 59°01' E 010°50'714.4
2019-Jul-17 17:00N 58°58' E 011°03'5 9.2
2019-Jul-17 16:31N 58°56' E 011°10'0 0.0
2019-Jul-17 16:00N 58°56' E 011°10'4 7.7
2019-Jul-17 15:30N 58°57' E 011°03'815.3
2019-Jul-17 15:00N 59°01' E 010°50'815.9
2019-Jul-17 14:30N 59°01' E 010°35'816.2
2019-Jul-17 14:00N 59°01' E 010°19'713.5
2019-Jul-17 13:30N 59°07' E 010°14'1 1.7
2019-Jul-17 13:00N 59°08' E 010°14'0 0.0
2019-Jul-17 12:30N 59°08' E 010°14'3 6.4
2019-Jul-17 12:01N 59°04' E 010°15'714.0
2019-Jul-17 11:31N 59°01' E 010°26'816.2
2019-Jul-17 11:01N 59°01' E 010°42'816.0
2019-Jul-17 10:30N 58°60' E 010°58'714.8
2019-Jul-17 10:00N 58°56' E 011°10'0 0.4
2019-Jul-17 09:30N 58°56' E 011°10'0 0.5
2019-Jul-17 09:00N 58°56' E 011°10'713.0
2019-Jul-17 08:30N 58°60' E 010°59'714.7
2019-Jul-17 08:00N 59°02' E 010°46'815.4
2019-Jul-17 07:30N 59°00' E 010°31'816.1
2019-Jul-17 07:00N 59°02' E 010°15'510.6
2019-Jul-17 06:30N 59°08' E 010°14'0 0.0
2019-Jul-17 06:00N 59°08' E 010°14'0 0.7
2019-Jul-17 05:30N 59°07' E 010°14'1 2.0
2019-Jul-17 04:58N 59°06' E 010°14'0 0.0
2019-Jul-17 04:28N 59°06' E 010°14'0 0.0
2019-Jul-17 03:59N 59°06' E 010°14'0 0.0
2019-Jul-17 03:29N 59°06' E 010°14'0 0.0
2019-Jul-17 02:59N 59°06' E 010°14'0 0.0
2019-Jul-17 02:30N 59°06' E 010°14'0 0.0
2019-Jul-17 02:00N 59°06' E 010°14'0 0.0
2019-Jul-17 01:30N 59°06' E 010°14'0 0.0
2019-Jul-17 01:00N 59°06' E 010°14'0 0.0
2019-Jul-17 00:28N 59°06' E 010°14'0 0.0
2019-Jul-16 23:58N 59°06' E 010°14'0 0.0
2019-Jul-16 23:29N 59°06' E 010°14'0 0.0
2019-Jul-16 22:59N 59°06' E 010°14'0 0.0
2019-Jul-16 22:29N 59°06' E 010°14'0 0.0
2019-Jul-16 22:00N 59°06' E 010°14'0 0.0
2019-Jul-16 21:30N 59°06' E 010°14'0 0.0
2019-Jul-16 21:00N 59°06' E 010°14'0 0.0
2019-Jul-16 20:31N 59°06' E 010°14'0 0.0
2019-Jul-16 20:00N 59°06' E 010°14'1 2.8
2019-Jul-16 19:30N 59°08' E 010°14'0 1.0
2019-Jul-16 19:00N 59°07' E 010°14'612.6
2019-Jul-16 18:31N 59°01' E 010°19'816.0
2019-Jul-16 18:00N 59°01' E 010°34'815.1
2019-Jul-16 17:30N 59°01' E 010°49'816.5
2019-Jul-16 17:01N 58°58' E 011°03'4 7.8
2019-Jul-16 16:30N 58°56' E 011°10'0 0.0
2019-Jul-16 16:00N 58°56' E 011°10'5 9.6
2019-Jul-16 15:31N 58°58' E 011°02'816.9
2019-Jul-16 15:01N 59°02' E 010°47'917.0
2019-Jul-16 14:30N 59°00' E 010°31'816.1
2019-Jul-16 14:01N 59°02' E 010°15'611.0
2019-Jul-16 13:30N 59°08' E 010°14'0 0.0
2019-Jul-16 13:00N 59°08' E 010°14'0 0.0
2019-Jul-16 12:30N 59°08' E 010°14'510.8
2019-Jul-16 12:00N 59°02' E 010°15'816.0
2019-Jul-16 11:31N 59°00' E 010°30'816.0
2019-Jul-16 11:00N 59°02' E 010°46'815.1
2019-Jul-16 10:30N 58°60' E 010°60'612.3
2019-Jul-16 10:00N 58°56' E 011°10'0 0.2
2019-Jul-16 09:30N 58°56' E 011°10'0 0.6
2019-Jul-16 09:00N 58°56' E 011°10'611.9
2019-Jul-16 08:30N 58°59' E 010°60'713.9
2019-Jul-16 08:00N 59°02' E 010°47'714.6
2019-Jul-16 07:31N 59°01' E 010°33'816.3
2019-Jul-16 07:00N 59°01' E 010°17'712.9
2019-Jul-16 06:30N 59°07' E 010°14'0 0.4
2019-Jul-16 06:00N 59°08' E 010°14'1 1.0
2019-Jul-16 05:30N 59°07' E 010°14'1 1.7
2019-Jul-16 04:58N 59°06' E 010°14'0 0.0
2019-Jul-16 04:28N 59°06' E 010°14'0 0.0
2019-Jul-16 03:59N 59°06' E 010°14'0 0.0
2019-Jul-16 03:29N 59°06' E 010°14'0 0.0
2019-Jul-16 02:59N 59°06' E 010°14'0 0.0
2019-Jul-16 02:30N 59°06' E 010°14'0 0.0
2019-Jul-16 02:00N 59°06' E 010°14'0 0.0
2019-Jul-16 01:30N 59°06' E 010°14'0 0.0
2019-Jul-16 00:58N 59°06' E 010°14'0 0.0
2019-Jul-16 00:28N 59°06' E 010°14'0 0.0
2019-Jul-15 23:58N 59°06' E 010°14'0 0.0
2019-Jul-15 23:29N 59°06' E 010°14'0 0.0
2019-Jul-15 22:59N 59°06' E 010°14'0 0.0
2019-Jul-15 22:29N 59°06' E 010°14'0 0.0
2019-Jul-15 22:00N 59°06' E 010°14'0 0.0
2019-Jul-15 21:30N 59°06' E 010°14'0 0.0
2019-Jul-15 21:00N 59°06' E 010°14'0 0.0
2019-Jul-15 20:28N 59°06' E 010°14'0 0.0
2019-Jul-15 19:58N 59°06' E 010°14'1 2.6
2019-Jul-15 19:30N 59°07' E 010°14'0 0.4
2019-Jul-15 19:00N 59°08' E 010°14'611.1
2019-Jul-15 18:30N 59°02' E 010°16'817.0
2019-Jul-15 18:01N 59°01' E 010°32'917.1
2019-Jul-15 17:31N 59°02' E 010°48'917.1
2019-Jul-15 17:00N 58°58' E 011°03'4 8.0
2019-Jul-15 16:30N 58°56' E 011°10'0 0.0
2019-Jul-15 16:00N 58°56' E 011°10'510.0
2019-Jul-15 15:30N 58°58' E 011°02'816.3
2019-Jul-15 15:01N 59°02' E 010°47'816.9
2019-Jul-15 14:31N 59°00' E 010°31'815.7
2019-Jul-15 14:00N 59°02' E 010°16'611.7
2019-Jul-15 13:30N 59°08' E 010°14'0 0.1
2019-Jul-15 13:00N 59°08' E 010°14'0 0.0
2019-Jul-15 12:30N 59°08' E 010°14'3 7.0
2019-Jul-15 12:01N 59°04' E 010°15'713.6
2019-Jul-15 11:31N 59°01' E 010°26'816.1
2019-Jul-15 11:01N 59°02' E 010°42'815.9
2019-Jul-15 10:30N 59°00' E 010°57'815.3
2019-Jul-15 10:00N 58°56' E 011°09'1 1.1
2019-Jul-15 09:31N 58°56' E 011°10'0 0.0
2019-Jul-15 09:00N 58°56' E 011°10'5 9.8
2019-Jul-15 08:30N 58°58' E 011°02'816.5
2019-Jul-15 08:01N 59°02' E 010°47'816.5
2019-Jul-15 07:30N 59°00' E 010°32'816.6
2019-Jul-15 07:00N 59°02' E 010°16'611.7
2019-Jul-15 06:31N 59°08' E 010°14'0 0.1
2019-Jul-15 06:00N 59°08' E 010°14'0 0.3
2019-Jul-15 05:30N 59°07' E 010°14'1 2.5
2019-Jul-15 04:59N 59°06' E 010°14'0 0.0
2019-Jul-15 04:29N 59°06' E 010°14'0 0.0
2019-Jul-15 03:59N 59°06' E 010°14'0 0.0
2019-Jul-15 03:30N 59°06' E 010°14'0 0.0
2019-Jul-15 03:00N 59°06' E 010°14'0 0.0
2019-Jul-15 02:30N 59°06' E 010°14'0 0.0
2019-Jul-15 01:58N 59°06' E 010°14'0 0.0
2019-Jul-15 01:28N 59°06' E 010°14'0 0.0
2019-Jul-15 00:58N 59°06' E 010°14'0 0.0
2019-Jul-15 00:29N 59°06' E 010°14'0 0.0
2019-Jul-14 23:59N 59°06' E 010°14'0 0.0
2019-Jul-14 23:26N 59°06' E 010°14'0 0.0
2019-Jul-14 23:00N 59°06' E 010°14'0 0.0
2019-Jul-14 22:30N 59°06' E 010°14'0 0.0
2019-Jul-14 22:00N 59°06' E 010°14'0 0.0
2019-Jul-14 21:28N 59°06' E 010°14'0 0.0
2019-Jul-14 20:58N 59°06' E 010°14'0 0.0
2019-Jul-14 20:28N 59°06' E 010°14'0 0.0
2019-Jul-14 20:00N 59°06' E 010°14'1 2.9
2019-Jul-14 19:30N 59°08' E 010°14'0 0.9
2019-Jul-14 19:00N 59°07' E 010°14'612.9
2019-Jul-14 18:31N 59°01' E 010°19'917.1
2019-Jul-14 18:00N 59°01' E 010°36'816.6
2019-Jul-14 17:31N 59°01' E 010°52'917.0
2019-Jul-14 17:00N 58°56' E 011°06'2 4.9
2019-Jul-14 16:31N 58°56' E 011°10'0 0.0
2019-Jul-14 16:01N 58°56' E 011°10'5 9.6
2019-Jul-14 15:30N 58°58' E 011°02'817.0
2019-Jul-14 15:00N 59°02' E 010°47'917.5
2019-Jul-14 14:30N 59°00' E 010°30'815.9
2019-Jul-14 14:00N 59°03' E 010°15'5 9.5
2019-Jul-14 13:31N 59°08' E 010°14'0 0.0
2019-Jul-14 13:00N 59°08' E 010°14'0 0.0
2019-Jul-14 12:30N 59°08' E 010°14'5 9.3
2019-Jul-14 12:00N 59°03' E 010°15'815.1
2019-Jul-14 11:31N 59°01' E 010°29'816.1
2019-Jul-14 11:01N 59°02' E 010°45'815.8
2019-Jul-14 10:30N 58°60' E 010°59'712.9
2019-Jul-14 10:00N 58°56' E 011°10'0 0.1
2019-Jul-14 09:30N 58°56' E 011°10'0 0.0
2019-Jul-14 09:01N 58°56' E 011°10'4 8.7
2019-Jul-14 08:30N 58°58' E 011°03'815.9
2019-Jul-14 08:00N 59°01' E 010°49'816.2
2019-Jul-14 07:30N 59°01' E 010°33'816.2
2019-Jul-14 07:01N 59°01' E 010°17'612.5
2019-Jul-14 06:30N 59°07' E 010°14'0 0.5
2019-Jul-14 06:00N 59°08' E 010°14'0 0.9
2019-Jul-14 05:30N 59°07' E 010°14'1 1.9
2019-Jul-14 05:00N 59°06' E 010°14'0 0.0
2019-Jul-14 04:31N 59°06' E 010°14'0 0.0
2019-Jul-14 04:01N 59°06' E 010°14'0 0.0
2019-Jul-14 03:30N 59°06' E 010°14'0 0.0
2019-Jul-14 03:01N 59°06' E 010°14'0 0.0
2019-Jul-14 02:30N 59°06' E 010°14'0 0.0
2019-Jul-14 02:00N 59°06' E 010°14'0 0.0
2019-Jul-14 01:30N 59°06' E 010°14'0 0.0
2019-Jul-14 01:00N 59°06' E 010°14'0 0.0
2019-Jul-14 00:30N 59°06' E 010°14'0 0.0
2019-Jul-14 00:00N 59°06' E 010°14'0 0.0
2019-Jul-13 23:31N 59°06' E 010°14'0 0.0
2019-Jul-13 23:01N 59°06' E 010°14'0 0.0
2019-Jul-13 22:31N 59°06' E 010°14'0 0.0
2019-Jul-13 22:00N 59°06' E 010°14'0 0.0
2019-Jul-13 21:31N 59°06' E 010°14'0 0.0
2019-Jul-13 21:00N 59°06' E 010°14'0 0.0
2019-Jul-13 20:30N 59°06' E 010°14'0 0.0
2019-Jul-13 20:00N 59°06' E 010°14'1 2.9
2019-Jul-13 19:30N 59°08' E 010°14'0 0.0
2019-Jul-13 19:01N 59°08' E 010°14'611.9
2019-Jul-13 18:30N 59°02' E 010°16'816.5
2019-Jul-13 18:01N 59°01' E 010°32'917.0
2019-Jul-13 17:30N 59°02' E 010°48'816.9
2019-Jul-13 17:00N 58°58' E 011°03'4 8.0
2019-Jul-13 16:30N 58°56' E 011°10'0 0.0
2019-Jul-13 16:00N 58°56' E 011°10'4 7.8
2019-Jul-13 15:30N 58°57' E 011°03'815.6
2019-Jul-13 15:01N 59°01' E 010°50'815.4
2019-Jul-13 14:30N 59°01' E 010°35'815.9
2019-Jul-13 14:01N 59°01' E 010°20'713.0
2019-Jul-13 13:30N 59°07' E 010°14'1 1.6
2019-Jul-13 13:00N 59°08' E 010°14'0 0.0
2019-Jul-13 12:30N 59°08' E 010°14'4 7.1
2019-Jul-13 12:00N 59°04' E 010°15'713.8
2019-Jul-13 11:31N 59°01' E 010°26'816.2
2019-Jul-13 11:01N 59°01' E 010°42'815.7
2019-Jul-13 10:30N 59°00' E 010°57'814.7
2019-Jul-13 09:59N 58°56' E 011°09'0 0.7
2019-Jul-13 09:30N 58°56' E 011°10'0 0.1
2019-Jul-13 09:00N 58°56' E 011°10'612.6
2019-Jul-13 08:30N 58°59' E 010°60'816.3
2019-Jul-13 08:00N 59°02' E 010°45'816.6
2019-Jul-13 07:30N 59°00' E 010°29'815.2
2019-Jul-13 07:01N 59°03' E 010°15'4 8.5
2019-Jul-13 06:30N 59°08' E 010°14'0 0.0
2019-Jul-13 06:00N 59°08' E 010°14'1 1.1
2019-Jul-13 05:30N 59°07' E 010°14'1 1.8
2019-Jul-13 05:00N 59°06' E 010°14'0 0.0
2019-Jul-13 04:29N 59°06' E 010°14'0 0.0
2019-Jul-13 03:59N 59°06' E 010°14'0 0.0
2019-Jul-13 03:30N 59°06' E 010°14'0 0.0
2019-Jul-13 03:00N 59°06' E 010°14'0 0.0
2019-Jul-13 02:30N 59°06' E 010°14'0 0.0
2019-Jul-13 01:58N 59°06' E 010°14'0 0.0
2019-Jul-13 01:28N 59°06' E 010°14'0 0.0
2019-Jul-13 00:59N 59°06' E 010°14'0 0.0
2019-Jul-13 00:29N 59°06' E 010°14'0 0.0
2019-Jul-12 23:59N 59°06' E 010°14'0 0.0
2019-Jul-12 23:30N 59°06' E 010°14'0 0.0
2019-Jul-12 23:00N 59°06' E 010°14'0 0.0
2019-Jul-12 22:30N 59°06' E 010°14'0 0.0
2019-Jul-12 22:01N 59°06' E 010°14'0 0.0
2019-Jul-12 21:28N 59°06' E 010°14'0 0.0
2019-Jul-12 20:58N 59°06' E 010°14'0 0.0
2019-Jul-12 20:29N 59°06' E 010°14'0 0.0
2019-Jul-12 20:00N 59°06' E 010°14'1 2.9
2019-Jul-12 19:30N 59°08' E 010°14'0 0.7
2019-Jul-12 19:00N 59°07' E 010°14'612.5
2019-Jul-12 18:30N 59°01' E 010°18'816.2
2019-Jul-12 18:01N 59°01' E 010°34'816.4
2019-Jul-12 17:30N 59°01' E 010°50'816.6
2019-Jul-12 17:00N 58°57' E 011°04'3 7.0
2019-Jul-12 16:31N 58°56' E 011°10'0 0.0
2019-Jul-12 16:00N 58°56' E 011°10'4 7.8
2019-Jul-12 15:30N 58°57' E 011°03'816.4
2019-Jul-12 15:00N 59°01' E 010°49'816.9
2019-Jul-12 14:30N 59°01' E 010°33'917.2
2019-Jul-12 14:01N 59°02' E 010°16'611.9
2019-Jul-12 13:30N 59°07' E 010°14'0 0.2
2019-Jul-12 13:01N 59°08' E 010°14'0 0.0
2019-Jul-12 12:30N 59°08' E 010°14'5 9.6
2019-Jul-12 12:01N 59°03' E 010°15'714.3
2019-Jul-12 11:31N 59°01' E 010°29'815.6
2019-Jul-12 11:01N 59°01' E 010°44'815.4
2019-Jul-12 10:30N 58°60' E 010°58'714.1
2019-Jul-12 10:00N 58°56' E 011°10'0 0.1
2019-Jul-12 09:30N 58°56' E 011°10'0 0.1
2019-Jul-12 09:01N 58°56' E 011°10'612.5
2019-Jul-12 08:30N 58°59' E 010°60'816.3
2019-Jul-12 08:00N 59°02' E 010°45'816.6
2019-Jul-12 07:30N 59°00' E 010°29'815.2
2019-Jul-12 07:00N 59°03' E 010°15'4 8.8
2019-Jul-12 06:31N 59°08' E 010°14'0 0.0
2019-Jul-12 06:00N 59°08' E 010°14'1 1.8
2019-Jul-12 05:30N 59°07' E 010°14'1 1.0
2019-Jul-12 05:01N 59°06' E 010°14'0 0.0
2019-Jul-12 04:28N 59°06' E 010°14'0 0.0
2019-Jul-12 03:58N 59°06' E 010°14'0 0.0
2019-Jul-12 03:28N 59°06' E 010°14'0 0.0
2019-Jul-12 02:59N 59°06' E 010°14'0 0.0
2019-Jul-12 02:29N 59°06' E 010°14'0 0.0
2019-Jul-12 01:30N 59°06' E 010°14'0 0.0
2019-Jul-12 01:00N 59°06' E 010°14'0 0.0
2019-Jul-12 00:30N 59°06' E 010°14'0 0.0
2019-Jul-11 23:58N 59°06' E 010°14'0 0.0
2019-Jul-11 23:28N 59°06' E 010°14'0 0.0
2019-Jul-11 22:58N 59°06' E 010°14'0 0.0
2019-Jul-11 22:29N 59°06' E 010°14'0 0.0
2019-Jul-11 21:59N 59°06' E 010°14'0 0.0
2019-Jul-11 21:29N 59°06' E 010°14'0 0.0
2019-Jul-11 21:00N 59°06' E 010°14'0 0.0
2019-Jul-11 20:30N 59°06' E 010°14'0 0.0
2019-Jul-11 20:00N 59°06' E 010°14'1 2.9
2019-Jul-11 19:31N 59°08' E 010°14'1 1.3
2019-Jul-11 19:00N 59°07' E 010°14'612.8
2019-Jul-11 18:31N 59°01' E 010°20'816.3
2019-Jul-11 18:00N 59°01' E 010°36'816.5
2019-Jul-11 17:30N 59°01' E 010°52'816.5
2019-Jul-11 17:00N 58°57' E 011°05'3 5.3
2019-Jul-11 16:30N 58°56' E 011°10'0 0.0
2019-Jul-11 16:00N 58°56' E 011°10'4 8.6
2019-Jul-11 15:30N 58°58' E 011°03'816.3
2019-Jul-11 15:00N 59°01' E 010°49'816.9
2019-Jul-11 14:30N 59°01' E 010°32'917.0
2019-Jul-11 14:00N 59°02' E 010°16'611.6
2019-Jul-11 13:30N 59°08' E 010°14'0 0.1
2019-Jul-11 13:01N 59°08' E 010°14'0 0.0
2019-Jul-11 12:30N 59°08' E 010°14'611.3
2019-Jul-11 12:01N 59°02' E 010°16'815.7
2019-Jul-11 11:31N 59°00' E 010°31'815.8
2019-Jul-11 11:00N 59°02' E 010°46'815.6
2019-Jul-11 10:31N 58°59' E 011°00'612.0
2019-Jul-11 10:00N 58°56' E 011°10'0 0.0
2019-Jul-11 09:30N 58°56' E 011°10'2 4.0
2019-Jul-11 09:00N 58°56' E 011°06'817.1
2019-Jul-11 08:30N 59°01' E 010°53'714.1
2019-Jul-11 08:00N 59°01' E 010°39'816.1
2019-Jul-11 07:30N 59°01' E 010°23'713.6
2019-Jul-11 07:00N 59°06' E 010°14'2 3.5
2019-Jul-11 06:30N 59°08' E 010°14'0 0.3
2019-Jul-11 06:00N 59°07' E 010°14'1 2.6
2019-Jul-11 05:30N 59°06' E 010°14'0 0.0
2019-Jul-11 05:00N 59°06' E 010°14'0 0.0
2019-Jul-11 04:30N 59°06' E 010°14'0 0.0
2019-Jul-11 04:00N 59°06' E 010°14'0 0.0
2019-Jul-11 03:30N 59°06' E 010°14'0 0.0
2019-Jul-11 03:00N 59°06' E 010°14'0 0.0
2019-Jul-11 02:30N 59°06' E 010°14'0 0.0
2019-Jul-11 02:00N 59°06' E 010°14'0 0.0
2019-Jul-11 01:30N 59°06' E 010°14'0 0.0
2019-Jul-11 01:00N 59°06' E 010°14'0 0.0
2019-Jul-11 00:30N 59°06' E 010°14'0 0.0
2019-Jul-11 00:00N 59°06' E 010°14'0 0.0
2019-Jul-10 23:30N 59°06' E 010°14'0 0.0
2019-Jul-10 23:00N 59°06' E 010°14'0 0.0
2019-Jul-10 22:30N 59°06' E 010°14'0 0.0
2019-Jul-10 22:00N 59°06' E 010°14'0 0.0
2019-Jul-10 21:30N 59°06' E 010°14'0 0.0
2019-Jul-10 21:00N 59°06' E 010°14'0 0.0
2019-Jul-10 20:30N 59°06' E 010°14'0 0.0
2019-Jul-10 20:00N 59°06' E 010°14'1 2.9
2019-Jul-10 19:30N 59°08' E 010°14'0 0.6
2019-Jul-10 19:00N 59°07' E 010°14'612.5
2019-Jul-10 18:30N 59°01' E 010°18'816.3
2019-Jul-10 18:00N 59°01' E 010°34'815.8
2019-Jul-10 17:30N 59°01' E 010°49'815.4
2019-Jul-10 17:00N 58°58' E 011°03'4 8.8
2019-Jul-10 16:30N 58°56' E 011°10'0 0.0
2019-Jul-10 16:00N 58°56' E 011°10'4 8.0
2019-Jul-10 15:30N 58°57' E 011°03'815.6
2019-Jul-10 15:01N 59°01' E 010°50'816.2
2019-Jul-10 14:31N 59°01' E 010°34'816.5
2019-Jul-10 14:01N 59°01' E 010°18'612.7
2019-Jul-10 13:30N 59°07' E 010°14'0 0.6
2019-Jul-10 13:00N 59°08' E 010°14'0 0.0
2019-Jul-10 12:30N 59°08' E 010°14'510.0
2019-Jul-10 12:00N 59°03' E 010°15'714.3
2019-Jul-10 11:31N 59°01' E 010°29'815.3
2019-Jul-10 11:00N 59°01' E 010°43'714.7
2019-Jul-10 10:30N 59°00' E 010°58'714.5
2019-Jul-10 10:00N 58°56' E 011°09'0 0.7
2019-Jul-10 09:30N 58°56' E 011°10'0 0.6
2019-Jul-10 09:00N 58°56' E 011°10'714.4
2019-Jul-10 08:30N 58°60' E 010°58'815.9
2019-Jul-10 08:00N 59°01' E 010°43'816.3
2019-Jul-10 07:30N 59°01' E 010°27'714.9
2019-Jul-10 07:00N 59°04' E 010°15'3 6.4
2019-Jul-10 06:30N 59°08' E 010°14'0 0.0
2019-Jul-10 06:00N 59°08' E 010°14'0 0.7
2019-Jul-10 05:31N 59°07' E 010°14'1 2.1
2019-Jul-10 05:00N 59°06' E 010°14'0 0.0
2019-Jul-10 04:30N 59°06' E 010°14'0 0.0
2019-Jul-10 04:00N 59°06' E 010°14'0 0.0
2019-Jul-10 03:30N 59°06' E 010°14'0 0.0
2019-Jul-10 03:01N 59°06' E 010°14'0 0.0
2019-Jul-10 02:31N 59°06' E 010°14'0 0.0
2019-Jul-10 02:01N 59°06' E 010°14'0 0.0
2019-Jul-10 01:30N 59°06' E 010°14'0 0.0
2019-Jul-10 01:01N 59°06' E 010°14'0 0.0
2019-Jul-10 00:30N 59°06' E 010°14'0 0.0
2019-Jul-10 00:01N 59°06' E 010°14'0 0.0
2019-Jul-09 23:30N 59°06' E 010°14'0 0.0
2019-Jul-09 23:00N 59°06' E 010°14'0 0.0
2019-Jul-09 22:30N 59°06' E 010°14'0 0.0
2019-Jul-09 22:01N 59°06' E 010°14'0 0.0
2019-Jul-09 21:30N 59°06' E 010°14'0 0.0
2019-Jul-09 21:00N 59°06' E 010°14'0 0.0
2019-Jul-09 20:30N 59°06' E 010°14'0 0.0
2019-Jul-09 20:01N 59°06' E 010°14'1 2.8
2019-Jul-09 19:30N 59°08' E 010°14'0 0.0
2019-Jul-09 19:01N 59°08' E 010°14'611.5
2019-Jul-09 18:30N 59°02' E 010°16'  

Dump ship's entire track history